createdAt,value
2019-01-22T00:00:43.314Z,-3.30
2019-01-22T00:03:09.615Z,-3.40
2019-01-22T00:05:36.065Z,-3.30
2019-01-22T00:08:02.562Z,-3.40
2019-01-22T00:10:28.815Z,-3.40
2019-01-22T00:12:55.044Z,-3.40
2019-01-22T00:15:21.642Z,-3.50
2019-01-22T00:17:47.973Z,-3.50
2019-01-22T00:20:14.977Z,-3.50
2019-01-22T00:22:41.351Z,-3.50
2019-01-22T00:25:10.018Z,-3.50
2019-01-22T00:27:36.346Z,-3.50
2019-01-22T00:30:05.950Z,-3.50
2019-01-22T00:32:32.174Z,-3.50
2019-01-22T00:34:58.482Z,-3.50
2019-01-22T00:37:24.798Z,-3.60
2019-01-22T00:39:50.998Z,-3.50
2019-01-22T00:42:17.327Z,-3.50
2019-01-22T00:44:43.623Z,-3.50
2019-01-22T00:47:09.951Z,-3.50
2019-01-22T00:49:36.259Z,-3.50
2019-01-22T00:52:02.893Z,-3.50
2019-01-22T00:54:29.114Z,-3.50
2019-01-22T00:56:55.522Z,-3.50
2019-01-22T00:59:21.755Z,-3.50
2019-01-22T01:01:48.059Z,-3.50
2019-01-22T01:04:14.282Z,-3.50
2019-01-22T01:06:40.586Z,-3.50
2019-01-22T01:09:07.219Z,-3.50
2019-01-22T01:11:33.426Z,-3.50
2019-01-22T01:13:59.762Z,-3.50
2019-01-22T01:16:25.970Z,-3.50
2019-01-22T01:18:52.195Z,-3.50
2019-01-22T01:21:18.450Z,-3.60
2019-01-22T01:23:45.624Z,-3.60
2019-01-22T01:26:12.030Z,-3.70
2019-01-22T01:28:38.262Z,-3.60
2019-01-22T01:31:04.564Z,-3.60
2019-01-22T01:33:30.875Z,-3.60
2019-01-22T01:35:57.198Z,-3.50
2019-01-22T01:38:23.502Z,-3.60
2019-01-22T01:40:50.127Z,-3.60
2019-01-22T01:43:16.507Z,-3.60
2019-01-22T01:45:42.835Z,-3.60
2019-01-22T01:48:09.146Z,-3.60
2019-01-22T01:50:35.379Z,-3.70
2019-01-22T01:53:01.775Z,-3.70
2019-01-22T01:55:28.110Z,-3.70
2019-01-22T01:57:55.011Z,-3.60
2019-01-22T02:00:22.034Z,-3.60
2019-01-22T02:02:48.443Z,-3.60
2019-01-22T02:05:15.246Z,-3.60
2019-01-22T02:07:41.679Z,-3.60
2019-01-22T02:10:11.181Z,-3.50
2019-01-22T02:12:41.305Z,-3.50
2019-01-22T02:15:11.343Z,-3.50
2019-01-22T02:17:56.414Z,-3.50
2019-01-22T02:20:32.310Z,-3.40
2019-01-22T02:23:14.377Z,-3.40
2019-01-22T02:26:05.615Z,-3.30
2019-01-22T02:28:50.840Z,-3.40
2019-01-22T02:31:20.992Z,-3.40
2019-01-22T02:33:56.992Z,-3.50
2019-01-22T02:36:44.243Z,-3.50
2019-01-22T02:39:26.380Z,-3.50
2019-01-22T02:41:59.398Z,-3.50
2019-01-22T02:44:35.570Z,-3.50
2019-01-22T02:47:08.633Z,-3.50
2019-01-22T02:49:48.033Z,-3.60
2019-01-22T02:52:35.046Z,-3.70
2019-01-22T02:55:11.001Z,-3.60
2019-01-22T02:57:50.107Z,-3.50
2019-01-22T03:00:49.214Z,-3.50
2019-01-22T03:03:22.138Z,-3.50
2019-01-22T03:06:16.148Z,-3.60
2019-01-22T03:08:47.909Z,-3.60
2019-01-22T03:11:32.743Z,-3.70
2019-01-22T03:14:12.230Z,-3.70
2019-01-22T03:17:16.175Z,-3.70
2019-01-22T03:19:51.689Z,-3.70
2019-01-22T03:22:24.628Z,-3.70
2019-01-22T03:24:57.805Z,-3.80
2019-01-22T03:27:27.986Z,-3.70
2019-01-22T03:30:18.739Z,-3.80
2019-01-22T03:33:12.667Z,-3.80
2019-01-22T03:35:58.004Z,-3.80
2019-01-22T03:38:42.531Z,-3.70
2019-01-22T03:41:36.807Z,-3.70
2019-01-22T03:44:06.826Z,-3.70
2019-01-22T03:46:59.966Z,-3.70
2019-01-22T03:49:30.021Z,-3.70
2019-01-22T03:52:09.016Z,-3.70
2019-01-22T03:54:57.352Z,-3.70
2019-01-22T03:57:27.381Z,-3.80
2019-01-22T03:59:53.693Z,-3.80
2019-01-22T04:02:21.002Z,-3.80
2019-01-22T04:04:47.207Z,-3.80
2019-01-22T04:07:13.427Z,-3.80
2019-01-22T04:09:40.434Z,-3.70
2019-01-22T04:12:06.658Z,-3.70
2019-01-22T04:14:32.883Z,-3.70
2019-01-22T04:16:59.107Z,-3.80
2019-01-22T04:19:25.726Z,-3.80
2019-01-22T04:21:52.049Z,-3.80
2019-01-22T04:24:31.068Z,-3.80
2019-01-22T04:27:16.280Z,-3.80
2019-01-22T04:30:03.014Z,-3.80
2019-01-22T04:32:33.137Z,-3.80
2019-01-22T04:35:32.255Z,-3.70
2019-01-22T04:38:05.338Z,-3.60
2019-01-22T04:40:47.736Z,-3.60
2019-01-22T04:43:23.642Z,-3.60
2019-01-22T04:46:08.235Z,-3.60
2019-01-22T04:48:53.652Z,-3.70
2019-01-22T04:51:29.785Z,-3.60
2019-01-22T04:54:09.399Z,-3.70
2019-01-22T04:56:39.847Z,-3.70
2019-01-22T04:59:22.057Z,-3.70
2019-01-22T05:02:10.926Z,-3.70
2019-01-22T05:04:43.959Z,-3.70
2019-01-22T05:07:17.122Z,-3.80
2019-01-22T05:10:11.586Z,-3.80
2019-01-22T05:12:41.599Z,-3.80
2019-01-22T05:15:28.542Z,-3.80
2019-01-22T05:18:10.653Z,-3.80
2019-01-22T05:20:49.122Z,-3.90
2019-01-22T05:23:19.160Z,-3.80
2019-01-22T05:26:10.734Z,-3.70
2019-01-22T05:28:46.752Z,-3.80
2019-01-22T05:31:29.253Z,-3.90
2019-01-22T05:34:21.755Z,-3.90
2019-01-22T05:36:54.686Z,-4.00
2019-01-22T05:39:33.823Z,-4.00
2019-01-22T05:42:22.811Z,-4.00
2019-01-22T05:44:53.171Z,-3.90
2019-01-22T05:47:26.666Z,-3.80
2019-01-22T05:50:10.468Z,-3.80
2019-01-22T05:52:46.507Z,-3.80
2019-01-22T05:55:22.755Z,-3.80
2019-01-22T05:57:52.793Z,-3.70
2019-01-22T06:00:25.850Z,-3.70
2019-01-22T06:02:55.861Z,-3.70
2019-01-22T06:05:43.827Z,-3.70
2019-01-22T06:08:38.002Z,-3.70
2019-01-22T06:11:29.391Z,-3.80
2019-01-22T06:14:15.937Z,-3.80
2019-01-22T06:17:04.108Z,-3.80
2019-01-22T06:19:43.476Z,-3.90
2019-01-22T06:22:28.687Z,-3.90
2019-01-22T06:25:01.440Z,-3.90
2019-01-22T06:27:27.839Z,-3.90
2019-01-22T06:30:15.871Z,-3.90
2019-01-22T06:32:48.895Z,-3.90
2019-01-22T06:35:31.218Z,-3.90
2019-01-22T06:38:13.231Z,-4.00
2019-01-22T06:41:04.480Z,-4.00
2019-01-22T06:43:41.414Z,-3.90
2019-01-22T06:46:20.336Z,-3.90
2019-01-22T06:48:53.166Z,-3.80
2019-01-22T06:51:23.179Z,-3.80
2019-01-22T06:54:27.808Z,-3.80
2019-01-22T06:57:10.920Z,-3.70
2019-01-22T06:59:56.386Z,-3.70
2019-01-22T07:02:32.462Z,-3.70
2019-01-22T07:05:02.473Z,-3.70
2019-01-22T07:07:44.466Z,-3.60
2019-01-22T07:10:32.950Z,-3.70
2019-01-22T07:13:08.759Z,-3.60
2019-01-22T07:16:07.885Z,-3.50
2019-01-22T07:18:49.943Z,-3.50
2019-01-22T07:21:55.494Z,-3.50
2019-01-22T07:24:34.605Z,-3.60
2019-01-22T07:27:07.472Z,-3.50
2019-01-22T07:29:52.517Z,-3.60
2019-01-22T07:32:47.274Z,-3.60
2019-01-22T07:35:26.316Z,-3.50
2019-01-22T07:37:56.347Z,-3.40
2019-01-22T07:40:38.709Z,-3.30
2019-01-22T07:43:11.884Z,-3.20
2019-01-22T07:45:54.332Z,-3.30
2019-01-22T07:48:27.034Z,-3.20
2019-01-22T07:50:59.914Z,-3.20
2019-01-22T07:53:29.943Z,-3.20
2019-01-22T07:56:14.786Z,-3.30
2019-01-22T07:58:53.476Z,-3.30
2019-01-22T08:01:35.578Z,-3.20
2019-01-22T08:04:33.770Z,-3.10
2019-01-22T08:07:11.470Z,-2.90
2019-01-22T08:10:15.496Z,-3.00
2019-01-22T08:12:45.570Z,-2.90
2019-01-22T08:15:18.382Z,-2.80
2019-01-22T08:17:57.549Z,-2.70
2019-01-22T08:20:27.567Z,-2.70
2019-01-22T08:23:15.363Z,-2.50
2019-01-22T08:25:54.622Z,-2.40
2019-01-22T08:28:43.042Z,-2.40
2019-01-22T08:31:25.379Z,-2.40
2019-01-22T08:33:58.596Z,-2.40
2019-01-22T08:36:34.546Z,-2.30
2019-01-22T08:39:07.433Z,-2.20
2019-01-22T08:41:49.577Z,-2.10
2019-01-22T08:44:22.386Z,-2.10
2019-01-22T08:47:01.431Z,-2.00
2019-01-22T08:49:31.731Z,-1.80
2019-01-22T08:52:10.622Z,-1.80
2019-01-22T08:54:46.714Z,-1.60
2019-01-22T08:57:25.991Z,-1.60
2019-01-22T09:00:11.328Z,-1.50
2019-01-22T09:02:59.321Z,-1.40
2019-01-22T09:05:29.371Z,-1.20
2019-01-22T09:08:09.869Z,-1.10
2019-01-22T09:10:42.915Z,-1.10
2019-01-22T09:13:24.766Z,-1.20
2019-01-22T09:15:57.566Z,-1.10
2019-01-22T09:18:33.627Z,-1.10
2019-01-22T09:21:03.658Z,-1.00
2019-01-22T09:23:33.672Z,-0.90
2019-01-22T09:26:09.418Z,-0.90
2019-01-22T09:28:56.202Z,-0.80
2019-01-22T09:31:44.646Z,-0.70
2019-01-22T09:34:23.951Z,-0.60
2019-01-22T09:37:06.299Z,-0.50
2019-01-22T09:39:32.503Z,-0.50
2019-01-22T09:41:58.722Z,-0.50
2019-01-22T09:44:24.938Z,-0.40
2019-01-22T09:46:51.239Z,-0.40
2019-01-22T09:49:17.459Z,-0.40
2019-01-22T09:51:46.410Z,-0.30
2019-01-22T09:54:12.635Z,-0.10
2019-01-22T09:56:38.830Z,-0.10
2019-01-22T09:59:05.146Z,-0.10
2019-01-22T10:01:31.558Z,-0.10
2019-01-22T10:04:03.393Z,0.00
2019-01-22T10:06:26.107Z,0.00
2019-01-22T10:08:52.734Z,0.10
2019-01-22T10:11:18.942Z,0.10
2019-01-22T10:13:48.237Z,0.20
2019-01-22T10:16:13.554Z,0.10
2019-01-22T10:18:39.754Z,0.10
2019-01-22T10:21:06.073Z,0.10
2019-01-22T10:23:32.283Z,0.30
2019-01-22T10:25:58.500Z,0.40
2019-01-22T10:28:24.694Z,0.40
2019-01-22T10:30:51.022Z,0.30
2019-01-22T10:33:17.329Z,0.40
2019-01-22T10:35:43.538Z,0.30
2019-01-22T10:38:09.744Z,0.40
2019-01-22T10:40:36.063Z,0.50
2019-01-22T10:43:08.985Z,0.50
2019-01-22T10:45:30.714Z,0.50
2019-01-22T10:47:56.915Z,0.80
2019-01-22T10:50:23.214Z,0.80
2019-01-22T10:52:49.430Z,0.90
2019-01-22T10:55:15.930Z,0.80
2019-01-22T10:57:42.341Z,0.80
2019-01-22T11:00:12.355Z,0.80
2019-01-22T11:02:38.581Z,0.80
2019-01-22T11:05:08.648Z,0.80
2019-01-22T11:07:35.018Z,1.00
2019-01-22T11:10:01.311Z,1.00
2019-01-22T11:12:27.526Z,1.10
2019-01-22T11:14:53.754Z,1.10
2019-01-22T11:17:19.971Z,1.20
2019-01-22T11:19:46.195Z,1.30
2019-01-22T11:22:32.271Z,1.20
2019-01-22T11:24:58.471Z,1.30
2019-01-22T11:27:24.699Z,1.20
2019-01-22T11:29:50.903Z,1.30
2019-01-22T11:32:17.120Z,1.40
2019-01-22T11:34:43.342Z,1.40
2019-01-22T11:37:29.411Z,1.50
2019-01-22T11:39:55.641Z,1.50
2019-01-22T11:42:21.882Z,1.40
2019-01-22T11:44:48.194Z,1.50
2019-01-22T11:47:14.395Z,1.40
2019-01-22T11:49:40.615Z,1.60
2019-01-22T11:52:06.810Z,1.60
2019-01-22T11:54:33.034Z,1.50
2019-01-22T11:56:59.233Z,1.40
2019-01-22T11:59:25.483Z,1.30
2019-01-22T12:01:51.687Z,1.30
2019-01-22T12:04:17.919Z,1.50
2019-01-22T12:06:44.126Z,1.60
2019-01-22T12:09:10.327Z,1.70
2019-01-22T12:11:36.546Z,1.80
2019-01-22T12:14:03.356Z,1.90
2019-01-22T12:16:29.592Z,1.90
2019-01-22T12:18:55.896Z,1.90
2019-01-22T12:21:22.175Z,2.00
2019-01-22T12:23:48.690Z,1.90
2019-01-22T12:26:14.952Z,2.10
2019-01-22T12:28:41.598Z,2.20
2019-01-22T12:31:07.836Z,2.20
2019-01-22T12:33:34.039Z,2.20
2019-01-22T12:36:00.251Z,2.00
2019-01-22T12:38:26.483Z,2.00
2019-01-22T12:40:52.682Z,2.10
2019-01-22T12:43:18.919Z,2.10
2019-01-22T12:45:45.119Z,2.10
2019-01-22T12:48:11.446Z,2.10
2019-01-22T12:50:37.855Z,2.20
2019-01-22T12:53:04.678Z,2.20
2019-01-22T12:55:30.894Z,2.30
2019-01-22T12:57:57.123Z,2.40
2019-01-22T13:00:26.239Z,2.50
2019-01-22T13:02:52.571Z,2.50
2019-01-22T13:05:28.706Z,2.50
2019-01-22T13:07:55.022Z,2.50
2019-01-22T13:10:21.219Z,2.40
2019-01-22T13:12:47.844Z,2.40
2019-01-22T13:15:14.531Z,2.30
2019-01-22T13:17:46.651Z,2.30
2019-01-22T13:20:20.852Z,2.40
2019-01-22T13:22:47.365Z,2.40
2019-01-22T13:25:13.978Z,2.40
2019-01-22T13:27:40.390Z,2.30
2019-01-22T13:30:13.214Z,2.10
2019-01-22T13:32:39.423Z,2.00
2019-01-22T13:35:06.547Z,1.80
2019-01-22T13:37:32.747Z,1.60
2019-01-22T13:39:58.966Z,1.50
2019-01-22T13:42:25.175Z,1.30
2019-01-22T13:44:51.411Z,1.30
2019-01-22T13:47:23.638Z,1.20
2019-01-22T13:49:49.841Z,1.20
2019-01-22T13:52:16.270Z,1.20
2019-01-22T13:54:42.497Z,1.30
2019-01-22T13:57:08.728Z,1.30
2019-01-22T13:59:34.919Z,1.30
2019-01-22T14:02:01.138Z,1.20
2019-01-22T14:04:27.342Z,1.10
2019-01-22T14:06:53.563Z,1.10
2019-01-22T14:09:19.860Z,1.00
2019-01-22T14:11:46.097Z,1.00
2019-01-22T14:14:12.294Z,1.00
2019-01-22T14:16:38.620Z,1.10
2019-01-22T14:19:04.820Z,1.10
2019-01-22T14:21:31.292Z,1.20
2019-01-22T14:23:57.494Z,1.20
2019-01-22T14:26:25.632Z,1.20
2019-01-22T14:28:51.837Z,1.10
2019-01-22T14:31:18.194Z,1.10
2019-01-22T14:33:44.402Z,1.20
2019-01-22T14:36:10.628Z,1.10
2019-01-22T14:38:36.828Z,1.00
2019-01-22T14:41:03.229Z,1.00
2019-01-22T14:43:29.759Z,0.90
2019-01-22T14:45:55.970Z,0.90
2019-01-22T14:48:22.183Z,0.80
2019-01-22T14:50:48.482Z,0.90
2019-01-22T14:53:14.738Z,1.00
2019-01-22T14:55:40.943Z,0.90
2019-01-22T14:58:07.270Z,1.00
2019-01-22T15:00:33.506Z,1.00
2019-01-22T15:02:59.915Z,1.10
2019-01-22T15:05:26.530Z,1.00
2019-01-22T15:07:52.743Z,0.90
2019-01-22T15:10:19.383Z,0.90
2019-01-22T15:12:48.279Z,0.90
2019-01-22T15:15:16.197Z,0.80
2019-01-22T15:17:42.505Z,0.80
2019-01-22T15:20:14.884Z,0.70
2019-01-22T15:22:41.091Z,0.70
2019-01-22T15:25:09.130Z,0.60
2019-01-22T15:27:35.442Z,0.60
2019-01-22T15:30:03.814Z,0.50
2019-01-22T15:32:30.015Z,0.60
2019-01-22T15:34:56.238Z,0.70
2019-01-22T15:37:22.430Z,0.60
2019-01-22T15:39:48.651Z,0.50
2019-01-22T15:42:14.853Z,0.50
2019-01-22T15:44:41.078Z,0.50
2019-01-22T15:47:07.278Z,0.50
2019-01-22T15:49:33.490Z,0.50
2019-01-22T15:52:00.278Z,0.50
2019-01-22T15:54:26.522Z,0.40
2019-01-22T15:56:53.734Z,0.50
2019-01-22T15:59:19.940Z,0.50
2019-01-22T16:01:46.168Z,0.50
2019-01-22T16:04:12.361Z,0.40
2019-01-22T16:06:38.581Z,0.40
2019-01-22T16:09:05.293Z,0.40
2019-01-22T16:11:31.526Z,0.40
2019-01-22T16:13:58.747Z,0.40
2019-01-22T16:16:25.062Z,0.40
2019-01-22T16:18:51.267Z,0.30
2019-01-22T16:21:17.491Z,0.30
2019-01-22T16:23:43.691Z,0.30
2019-01-22T16:26:09.891Z,0.30
2019-01-22T16:28:36.158Z,0.40
2019-01-22T16:31:03.972Z,0.50
2019-01-22T16:33:30.842Z,0.50
2019-01-22T16:35:57.082Z,0.50
2019-01-22T16:38:23.543Z,0.50
2019-01-22T16:40:49.750Z,0.50
2019-01-22T16:43:16.027Z,0.50
2019-01-22T16:45:42.236Z,0.40
2019-01-22T16:48:08.450Z,0.40
2019-01-22T16:50:34.751Z,0.40
2019-01-22T16:53:02.978Z,0.60
2019-01-22T16:55:31.802Z,0.50
2019-01-22T16:57:58.851Z,0.40
2019-01-22T17:00:27.454Z,0.40
2019-01-22T17:02:53.678Z,0.50
2019-01-22T17:05:20.430Z,0.40
2019-01-22T17:07:46.829Z,0.30
2019-01-22T17:10:16.256Z,0.30
2019-01-22T17:12:42.453Z,0.30
2019-01-22T17:15:10.387Z,0.30
2019-01-22T17:17:36.690Z,0.20
2019-01-22T17:20:06.720Z,0.20
2019-01-22T17:22:33.125Z,0.20
2019-01-22T17:24:59.346Z,0.20
2019-01-22T17:27:25.582Z,0.30
2019-01-22T17:29:51.806Z,0.20
2019-01-22T17:32:19.910Z,0.30
2019-01-22T17:34:46.638Z,0.30
2019-01-22T17:37:12.847Z,0.30
2019-01-22T17:39:39.058Z,0.40
2019-01-22T17:42:05.631Z,0.50
2019-01-22T17:44:31.849Z,0.40
2019-01-22T17:46:58.107Z,0.40
2019-01-22T17:49:24.335Z,0.40
2019-01-22T17:51:50.530Z,0.30
2019-01-22T17:54:16.741Z,0.30
2019-01-22T17:56:43.150Z,0.30
2019-01-22T17:59:09.349Z,0.30
2019-01-22T18:01:35.565Z,0.30
2019-01-22T18:04:01.872Z,0.30
2019-01-22T18:06:28.082Z,0.30
2019-01-22T18:08:54.298Z,0.20
2019-01-22T18:11:20.514Z,0.30
2019-01-22T18:13:49.751Z,0.30
2019-01-22T18:16:15.972Z,0.30
2019-01-22T18:18:46.104Z,0.30
2019-01-22T18:21:10.337Z,0.30
2019-01-22T18:23:36.542Z,0.40
2019-01-22T18:26:03.118Z,0.50
2019-01-22T18:28:29.378Z,0.50
2019-01-22T18:30:55.582Z,0.50
2019-01-22T18:33:21.810Z,0.40
2019-01-22T18:35:48.114Z,0.40
2019-01-22T18:38:14.458Z,0.40
2019-01-22T18:40:40.788Z,0.40
2019-01-22T18:43:07.086Z,0.30
2019-01-22T18:45:33.391Z,0.30
2019-01-22T18:47:59.559Z,0.20
2019-01-22T18:50:26.047Z,0.20
2019-01-22T18:52:52.689Z,0.10
2019-01-22T18:55:19.714Z,0.10
2019-01-22T18:57:46.034Z,0.10
2019-01-22T19:00:20.403Z,0.10
2019-01-22T19:02:46.840Z,0.10
2019-01-22T19:05:13.445Z,0.10
2019-01-22T19:07:39.659Z,0.00
2019-01-22T19:10:09.670Z,0.10
2019-01-22T19:12:35.910Z,0.00
2019-01-22T19:15:04.259Z,0.00
2019-01-22T19:17:30.574Z,0.00
2019-01-22T19:19:56.787Z,-0.10
2019-01-22T19:22:22.995Z,0.00
2019-01-22T19:24:49.228Z,-0.10
2019-01-22T19:27:15.449Z,-0.10
2019-01-22T19:29:41.659Z,-0.10
2019-01-22T19:32:07.886Z,-0.10
2019-01-22T19:34:34.114Z,-0.10
2019-01-22T19:37:00.310Z,-0.10
2019-01-22T19:39:26.598Z,-0.10
2019-01-22T19:41:52.805Z,-0.10
2019-01-22T19:44:19.027Z,-0.10
2019-01-22T19:46:45.234Z,-0.20
2019-01-22T19:49:11.734Z,-0.20
2019-01-22T19:51:37.938Z,-0.20
2019-01-22T19:54:04.168Z,-0.20
2019-01-22T19:56:30.414Z,-0.20
2019-01-22T19:58:56.642Z,-0.20
2019-01-22T20:01:23.066Z,-0.20
2019-01-22T20:03:49.265Z,-0.20
2019-01-22T20:06:15.495Z,-0.10
2019-01-22T20:08:41.702Z,-0.10
2019-01-22T20:11:07.975Z,-0.20
2019-01-22T20:13:34.281Z,-0.20
2019-01-22T20:16:00.494Z,-0.20
2019-01-22T20:18:26.699Z,-0.30
2019-01-22T20:20:52.921Z,-0.20
2019-01-22T20:23:19.119Z,-0.20
2019-01-22T20:25:45.334Z,-0.20
2019-01-22T20:28:11.544Z,-0.20
2019-01-22T20:30:37.757Z,-0.20
2019-01-22T20:33:04.167Z,-0.20
2019-01-22T20:35:30.491Z,-0.30
2019-01-22T20:37:57.094Z,-0.40
2019-01-22T20:40:23.490Z,-0.40
2019-01-22T20:42:50.030Z,-0.40
2019-01-22T20:45:18.818Z,-0.30
2019-01-22T20:47:51.106Z,-0.30
2019-01-22T20:50:19.481Z,-0.30
2019-01-22T20:52:45.638Z,-0.30
2019-01-22T20:55:14.458Z,-0.30
2019-01-22T20:57:40.694Z,-0.50
2019-01-22T21:00:10.802Z,-0.40
2019-01-22T21:02:37.027Z,-0.50
2019-01-22T21:05:07.057Z,-0.40
2019-01-22T21:07:33.271Z,-0.30
2019-01-22T21:09:59.473Z,-0.40
2019-01-22T21:12:28.774Z,-0.40
2019-01-22T21:14:55.450Z,-0.40
2019-01-22T21:17:21.656Z,-0.40
2019-01-22T21:19:47.879Z,-0.40
2019-01-22T21:22:14.355Z,-0.50
2019-01-22T21:24:40.570Z,-0.40
2019-01-22T21:27:06.773Z,-0.40
2019-01-22T21:29:33.031Z,-0.50
2019-01-22T21:31:59.238Z,-0.50
2019-01-22T21:34:26.427Z,-0.50
2019-01-22T21:36:53.460Z,-0.50
2019-01-22T21:39:19.899Z,-0.50
2019-01-22T21:41:46.098Z,-0.50
2019-01-22T21:44:12.314Z,-0.50
2019-01-22T21:46:38.818Z,-0.40
2019-01-22T21:49:05.013Z,-0.40
2019-01-22T21:51:31.233Z,-0.40
2019-01-22T21:53:57.554Z,-0.50
2019-01-22T21:56:23.782Z,-0.50
2019-01-22T21:58:49.979Z,-0.50
2019-01-22T22:01:16.211Z,-0.40
2019-01-22T22:03:42.415Z,-0.40
2019-01-22T22:06:08.745Z,-0.40
2019-01-22T22:08:34.950Z,-0.50
2019-01-22T22:11:01.200Z,-0.50
2019-01-22T22:13:27.407Z,-0.60
2019-01-22T22:15:53.607Z,-0.50
2019-01-22T22:18:19.831Z,-0.60
2019-01-22T22:20:46.269Z,-0.50
2019-01-22T22:23:12.490Z,-0.50
2019-01-22T22:25:38.692Z,-0.50
2019-01-22T22:28:04.926Z,-0.60
2019-01-22T22:30:33.429Z,-0.60
2019-01-22T22:32:59.750Z,-0.60
2019-01-22T22:35:26.057Z,-0.60
2019-01-22T22:37:52.259Z,-0.60
2019-01-22T22:40:19.886Z,-0.60
2019-01-22T22:42:46.106Z,-0.60
2019-01-22T22:45:14.826Z,-0.50
2019-01-22T22:47:41.130Z,-0.50
2019-01-22T22:50:13.710Z,-0.50
2019-01-22T22:52:39.911Z,-0.50
2019-01-22T22:55:06.246Z,-0.50
2019-01-22T22:57:32.446Z,-0.50
2019-01-22T22:59:58.679Z,-0.50
2019-01-22T23:02:24.889Z,-0.60
2019-01-22T23:04:51.123Z,-0.50
2019-01-22T23:07:17.321Z,-0.40
2019-01-22T23:09:43.546Z,-0.50
2019-01-22T23:12:09.750Z,-0.50
2019-01-22T23:14:35.970Z,-0.50
2019-01-22T23:17:02.815Z,-0.50
2019-01-22T23:19:29.046Z,-0.40
2019-01-22T23:21:55.443Z,-0.30
2019-01-22T23:24:21.680Z,-0.30
2019-01-22T23:26:47.882Z,-0.40
2019-01-22T23:29:14.098Z,-0.30
2019-01-22T23:31:40.449Z,-0.30
2019-01-22T23:34:06.880Z,-0.30
2019-01-22T23:36:33.102Z,-0.30
2019-01-22T23:38:59.314Z,-0.30
2019-01-22T23:41:25.530Z,-0.30
2019-01-22T23:43:51.838Z,-0.30
2019-01-22T23:46:18.166Z,-0.20
2019-01-22T23:48:44.378Z,-0.40
2019-01-22T23:51:10.619Z,-0.30
2019-01-22T23:53:36.835Z,-0.30
2019-01-22T23:56:03.353Z,-0.20
2019-01-22T23:58:35.760Z,-0.20
